sensor_id;sensor_type;location;lat;lon;timestamp;P1;durP1;ratioP1;P2;durP2;ratioP2
18822;SDS011;9540;51.550;7.980;2023-04-16T00:01:38;179.88;;;44.80;;
18822;SDS011;9540;51.550;7.980;2023-04-16T00:04:06;198.65;;;47.60;;
18822;SDS011;9540;51.550;7.980;2023-04-16T00:06:33;174.98;;;42.95;;
18822;SDS011;9540;51.550;7.980;2023-04-16T00:09:01;173.70;;;45.70;;
18822;SDS011;9540;51.550;7.980;2023-04-16T00:11:28;167.77;;;45.67;;
18822;SDS011;9540;51.550;7.980;2023-04-16T00:13:55;189.95;;;47.83;;
18822;SDS011;9540;51.550;7.980;2023-04-16T00:16:23;176.48;;;47.58;;
18822;SDS011;9540;51.550;7.980;2023-04-16T00:18:50;197.95;;;48.28;;
18822;SDS011;9540;51.550;7.980;2023-04-16T00:21:18;188.48;;;46.30;;
18822;SDS011;9540;51.550;7.980;2023-04-16T00:23:45;158.05;;;45.67;;
18822;SDS011;9540;51.550;7.980;2023-04-16T00:26:13;184.50;;;48.72;;
18822;SDS011;9540;51.550;7.980;2023-04-16T00:28:40;199.55;;;48.65;;
18822;SDS011;9540;51.550;7.980;2023-04-16T00:31:07;193.07;;;47.65;;
18822;SDS011;9540;51.550;7.980;2023-04-16T00:33:34;183.70;;;44.97;;
18822;SDS011;9540;51.550;7.980;2023-04-16T00:36:02;195.38;;;48.28;;
18822;SDS011;9540;51.550;7.980;2023-04-16T00:38:31;216.23;;;50.72;;
18822;SDS011;9540;51.550;7.980;2023-04-16T00:40:58;222.82;;;53.05;;
18822;SDS011;9540;51.550;7.980;2023-04-16T00:43:25;219.32;;;52.08;;
18822;SDS011;9540;51.550;7.980;2023-04-16T00:45:52;210.90;;;52.67;;
18822;SDS011;9540;51.550;7.980;2023-04-16T00:48:22;201.52;;;50.88;;
18822;SDS011;9540;51.550;7.980;2023-04-16T00:50:51;221.02;;;53.97;;
18822;SDS011;9540;51.550;7.980;2023-04-16T00:53:20;223.00;;;50.80;;
18822;SDS011;9540;51.550;7.980;2023-04-16T00:55:49;196.25;;;50.53;;
18822;SDS011;9540;51.550;7.980;2023-04-16T00:58:17;226.35;;;50.78;;
18822;SDS011;9540;51.550;7.980;2023-04-16T01:00:44;236.52;;;51.10;;
18822;SDS011;9540;51.550;7.980;2023-04-16T01:03:11;238.27;;;53.03;;
18822;SDS011;9540;51.550;7.980;2023-04-16T01:05:38;243.35;;;51.10;;
18822;SDS011;9540;51.550;7.980;2023-04-16T01:08:06;243.82;;;51.10;;
18822;SDS011;9540;51.550;7.980;2023-04-16T01:10:40;225.45;;;50.25;;
18822;SDS011;9540;51.550;7.980;2023-04-16T01:13:08;265.67;;;53.53;;
18822;SDS011;9540;51.550;7.980;2023-04-16T01:15:35;259.90;;;51.85;;
18822;SDS011;9540;51.550;7.980;2023-04-16T01:18:11;262.30;;;51.22;;
18822;SDS011;9540;51.550;7.980;2023-04-16T01:20:40;210.32;;;50.90;;
18822;SDS011;9540;51.550;7.980;2023-04-16T01:23:08;234.07;;;52.13;;
18822;SDS011;9540;51.550;7.980;2023-04-16T01:25:35;203.45;;;48.55;;
18822;SDS011;9540;51.550;7.980;2023-04-16T01:28:02;228.43;;;49.70;;
18822;SDS011;9540;51.550;7.980;2023-04-16T01:30:30;262.60;;;49.33;;
18822;SDS011;9540;51.550;7.980;2023-04-16T01:32:57;189.57;;;46.35;;
18822;SDS011;9540;51.550;7.980;2023-04-16T01:35:25;264.27;;;50.10;;
18822;SDS011;9540;51.550;7.980;2023-04-16T01:37:53;204.88;;;48.03;;
18822;SDS011;9540;51.550;7.980;2023-04-16T01:40:20;204.23;;;47.90;;
18822;SDS011;9540;51.550;7.980;2023-04-16T01:42:48;204.93;;;45.05;;
18822;SDS011;9540;51.550;7.980;2023-04-16T01:45:15;214.52;;;49.92;;
18822;SDS011;9540;51.550;7.980;2023-04-16T01:47:43;214.65;;;51.17;;
18822;SDS011;9540;51.550;7.980;2023-04-16T01:50:11;227.30;;;50.58;;
18822;SDS011;9540;51.550;7.980;2023-04-16T01:52:38;202.45;;;49.83;;
18822;SDS011;9540;51.550;7.980;2023-04-16T01:55:07;198.38;;;46.97;;
18822;SDS011;9540;51.550;7.980;2023-04-16T01:57:34;224.25;;;48.08;;
18822;SDS011;9540;51.550;7.980;2023-04-16T02:00:02;214.60;;;46.88;;
18822;SDS011;9540;51.550;7.980;2023-04-16T02:02:30;206.13;;;49.25;;
18822;SDS011;9540;51.550;7.980;2023-04-16T02:04:57;230.50;;;51.38;;
18822;SDS011;9540;51.550;7.980;2023-04-16T02:07:24;205.98;;;49.25;;
18822;SDS011;9540;51.550;7.980;2023-04-16T02:09:51;226.48;;;50.22;;
18822;SDS011;9540;51.550;7.980;2023-04-16T02:12:20;212.90;;;50.15;;
18822;SDS011;9540;51.550;7.980;2023-04-16T02:14:47;238.57;;;50.00;;
18822;SDS011;9540;51.550;7.980;2023-04-16T02:17:14;213.00;;;50.47;;
18822;SDS011;9540;51.550;7.980;2023-04-16T02:19:41;202.88;;;51.30;;
18822;SDS011;9540;51.550;7.980;2023-04-16T02:22:09;197.48;;;50.17;;
18822;SDS011;9540;51.550;7.980;2023-04-16T02:24:36;207.20;;;48.08;;
18822;SDS011;9540;51.550;7.980;2023-04-16T02:27:03;207.60;;;49.78;;
18822;SDS011;9540;51.550;7.980;2023-04-16T02:29:31;218.93;;;51.47;;
18822;SDS011;9540;51.550;7.980;2023-04-16T02:31:58;207.27;;;52.65;;
18822;SDS011;9540;51.550;7.980;2023-04-16T02:34:25;199.35;;;51.70;;
18822;SDS011;9540;51.550;7.980;2023-04-16T02:36:53;202.32;;;51.10;;
18822;SDS011;9540;51.550;7.980;2023-04-16T02:39:22;202.85;;;50.30;;
18822;SDS011;9540;51.550;7.980;2023-04-16T02:41:49;203.90;;;51.22;;
18822;SDS011;9540;51.550;7.980;2023-04-16T02:44:17;225.82;;;53.38;;
18822;SDS011;9540;51.550;7.980;2023-04-16T02:46:45;210.30;;;51.00;;
18822;SDS011;9540;51.550;7.980;2023-04-16T02:49:13;221.65;;;51.83;;
18822;SDS011;9540;51.550;7.980;2023-04-16T02:51:40;205.52;;;51.55;;
18822;SDS011;9540;51.550;7.980;2023-04-16T02:54:07;210.38;;;52.50;;
18822;SDS011;9540;51.550;7.980;2023-04-16T02:56:34;217.27;;;53.20;;
18822;SDS011;9540;51.550;7.980;2023-04-16T02:59:01;200.25;;;52.83;;
18822;SDS011;9540;51.550;7.980;2023-04-16T03:01:29;192.82;;;49.05;;
18822;SDS011;9540;51.550;7.980;2023-04-16T03:04:00;190.57;;;50.08;;
18822;SDS011;9540;51.550;7.980;2023-04-16T03:06:27;208.98;;;50.83;;
18822;SDS011;9540;51.550;7.980;2023-04-16T03:08:55;180.38;;;48.03;;
18822;SDS011;9540;51.550;7.980;2023-04-16T03:11:23;180.73;;;47.28;;
18822;SDS011;9540;51.550;7.980;2023-04-16T03:13:50;212.73;;;50.92;;
18822;SDS011;9540;51.550;7.980;2023-04-16T03:16:18;192.82;;;52.30;;
18822;SDS011;9540;51.550;7.980;2023-04-16T03:18:45;178.98;;;53.80;;
18822;SDS011;9540;51.550;7.980;2023-04-16T03:21:14;175.65;;;55.03;;
18822;SDS011;9540;51.550;7.980;2023-04-16T03:23:41;182.35;;;54.00;;
18822;SDS011;9540;51.550;7.980;2023-04-16T03:26:08;176.13;;;49.08;;
18822;SDS011;9540;51.550;7.980;2023-04-16T03:28:35;179.77;;;48.88;;
18822;SDS011;9540;51.550;7.980;2023-04-16T03:31:02;161.23;;;46.60;;
18822;SDS011;9540;51.550;7.980;2023-04-16T03:33:29;174.77;;;49.58;;
18822;SDS011;9540;51.550;7.980;2023-04-16T03:35:57;153.60;;;46.85;;
18822;SDS011;9540;51.550;7.980;2023-04-16T03:38:26;164.48;;;51.25;;
18822;SDS011;9540;51.550;7.980;2023-04-16T03:40:53;168.43;;;49.58;;
18822;SDS011;9540;51.550;7.980;2023-04-16T03:43:20;161.20;;;49.45;;
18822;SDS011;9540;51.550;7.980;2023-04-16T03:45:48;168.23;;;50.80;;
18822;SDS011;9540;51.550;7.980;2023-04-16T03:48:15;158.60;;;49.97;;
18822;SDS011;9540;51.550;7.980;2023-04-16T03:50:44;162.38;;;49.85;;
18822;SDS011;9540;51.550;7.980;2023-04-16T03:53:12;181.80;;;51.40;;
18822;SDS011;9540;51.550;7.980;2023-04-16T03:55:41;198.77;;;53.33;;
18822;SDS011;9540;51.550;7.980;2023-04-16T03:58:09;181.50;;;52.33;;
18822;SDS011;9540;51.550;7.980;2023-04-16T04:00:36;175.80;;;52.58;;
18822;SDS011;9540;51.550;7.980;2023-04-16T04:03:06;173.43;;;54.80;;
18822;SDS011;9540;51.550;7.980;2023-04-16T04:05:35;175.77;;;53.70;;
18822;SDS011;9540;51.550;7.980;2023-04-16T04:08:02;155.95;;;49.17;;
18822;SDS011;9540;51.550;7.980;2023-04-16T04:10:30;204.20;;;53.85;;
18822;SDS011;9540;51.550;7.980;2023-04-16T04:12:59;174.55;;;51.25;;
18822;SDS011;9540;51.550;7.980;2023-04-16T04:15:28;195.90;;;51.90;;
18822;SDS011;9540;51.550;7.980;2023-04-16T04:17:55;183.02;;;55.65;;
18822;SDS011;9540;51.550;7.980;2023-04-16T04:20:22;163.85;;;52.08;;
18822;SDS011;9540;51.550;7.980;2023-04-16T04:22:49;165.18;;;51.75;;
18822;SDS011;9540;51.550;7.980;2023-04-16T04:25:17;177.43;;;53.75;;
18822;SDS011;9540;51.550;7.980;2023-04-16T04:27:44;189.57;;;53.55;;
18822;SDS011;9540;51.550;7.980;2023-04-16T04:30:12;176.73;;;53.92;;
18822;SDS011;9540;51.550;7.980;2023-04-16T04:32:40;166.80;;;49.72;;
18822;SDS011;9540;51.550;7.980;2023-04-16T04:35:07;173.07;;;52.97;;
18822;SDS011;9540;51.550;7.980;2023-04-16T04:37:35;165.60;;;49.85;;
18822;SDS011;9540;51.550;7.980;2023-04-16T04:40:06;182.88;;;52.03;;
18822;SDS011;9540;51.550;7.980;2023-04-16T04:42:35;167.02;;;51.97;;
18822;SDS011;9540;51.550;7.980;2023-04-16T04:45:03;165.57;;;53.90;;
18822;SDS011;9540;51.550;7.980;2023-04-16T04:47:33;165.30;;;53.72;;
18822;SDS011;9540;51.550;7.980;2023-04-16T04:50:00;181.45;;;53.10;;
18822;SDS011;9540;51.550;7.980;2023-04-16T04:52:28;169.80;;;52.72;;
18822;SDS011;9540;51.550;7.980;2023-04-16T04:54:55;151.88;;;52.17;;
18822;SDS011;9540;51.550;7.980;2023-04-16T04:57:23;157.88;;;49.25;;
18822;SDS011;9540;51.550;7.980;2023-04-16T04:59:50;170.40;;;53.30;;
18822;SDS011;9540;51.550;7.980;2023-04-16T05:02:18;156.25;;;51.83;;
18822;SDS011;9540;51.550;7.980;2023-04-16T05:04:46;162.70;;;54.00;;
18822;SDS011;9540;51.550;7.980;2023-04-16T05:07:15;167.30;;;52.65;;
18822;SDS011;9540;51.550;7.980;2023-04-16T05:09:42;175.45;;;55.80;;
18822;SDS011;9540;51.550;7.980;2023-04-16T05:12:09;160.05;;;54.85;;
18822;SDS011;9540;51.550;7.980;2023-04-16T05:14:37;182.80;;;54.28;;
18822;SDS011;9540;51.550;7.980;2023-04-16T05:17:04;162.65;;;51.67;;
18822;SDS011;9540;51.550;7.980;2023-04-16T05:19:31;184.13;;;55.17;;
18822;SDS011;9540;51.550;7.980;2023-04-16T05:22:00;171.45;;;53.85;;
18822;SDS011;9540;51.550;7.980;2023-04-16T05:24:27;163.15;;;56.17;;
18822;SDS011;9540;51.550;7.980;2023-04-16T05:26:55;166.65;;;53.22;;
18822;SDS011;9540;51.550;7.980;2023-04-16T05:29:23;154.20;;;53.67;;
18822;SDS011;9540;51.550;7.980;2023-04-16T05:31:50;161.57;;;53.80;;
18822;SDS011;9540;51.550;7.980;2023-04-16T05:34:17;150.68;;;54.20;;
18822;SDS011;9540;51.550;7.980;2023-04-16T05:36:44;143.27;;;52.63;;
18822;SDS011;9540;51.550;7.980;2023-04-16T05:39:15;146.43;;;54.13;;
18822;SDS011;9540;51.550;7.980;2023-04-16T05:41:42;134.15;;;51.90;;
18822;SDS011;9540;51.550;7.980;2023-04-16T05:44:09;148.02;;;54.22;;
18822;SDS011;9540;51.550;7.980;2023-04-16T05:46:37;139.50;;;53.78;;
18822;SDS011;9540;51.550;7.980;2023-04-16T05:49:04;144.75;;;53.05;;
18822;SDS011;9540;51.550;7.980;2023-04-16T05:51:31;138.35;;;50.78;;
18822;SDS011;9540;51.550;7.980;2023-04-16T05:53:58;132.02;;;53.00;;
18822;SDS011;9540;51.550;7.980;2023-04-16T05:56:26;136.48;;;51.15;;
18822;SDS011;9540;51.550;7.980;2023-04-16T05:58:54;120.10;;;49.55;;
18822;SDS011;9540;51.550;7.980;2023-04-16T06:01:21;119.88;;;49.83;;
18822;SDS011;9540;51.550;7.980;2023-04-16T06:03:48;127.50;;;50.47;;
18822;SDS011;9540;51.550;7.980;2023-04-16T06:06:15;117.35;;;48.03;;
18822;SDS011;9540;51.550;7.980;2023-04-16T06:08:42;122.18;;;48.65;;
18822;SDS011;9540;51.550;7.980;2023-04-16T06:11:10;109.55;;;48.25;;
18822;SDS011;9540;51.550;7.980;2023-04-16T06:13:39;110.05;;;46.63;;
18822;SDS011;9540;51.550;7.980;2023-04-16T06:16:07;110.88;;;46.00;;
18822;SDS011;9540;51.550;7.980;2023-04-16T06:18:35;117.28;;;47.95;;
18822;SDS011;9540;51.550;7.980;2023-04-16T06:21:02;113.47;;;47.55;;
18822;SDS011;9540;51.550;7.980;2023-04-16T06:23:29;108.85;;;46.65;;
18822;SDS011;9540;51.550;7.980;2023-04-16T06:25:57;114.05;;;48.08;;
18822;SDS011;9540;51.550;7.980;2023-04-16T06:28:24;110.40;;;47.22;;
18822;SDS011;9540;51.550;7.980;2023-04-16T06:30:52;105.53;;;43.13;;
18822;SDS011;9540;51.550;7.980;2023-04-16T06:33:20;96.43;;;44.78;;
18822;SDS011;9540;51.550;7.980;2023-04-16T06:35:47;94.07;;;43.40;;
18822;SDS011;9540;51.550;7.980;2023-04-16T06:38:14;87.50;;;41.88;;
18822;SDS011;9540;51.550;7.980;2023-04-16T06:40:42;100.88;;;44.20;;
18822;SDS011;9540;51.550;7.980;2023-04-16T06:43:10;82.35;;;40.63;;
18822;SDS011;9540;51.550;7.980;2023-04-16T06:45:40;78.60;;;38.78;;
18822;SDS011;9540;51.550;7.980;2023-04-16T06:48:08;88.25;;;41.15;;
18822;SDS011;9540;51.550;7.980;2023-04-16T06:50:35;84.57;;;42.10;;
18822;SDS011;9540;51.550;7.980;2023-04-16T06:53:03;78.07;;;39.58;;
18822;SDS011;9540;51.550;7.980;2023-04-16T06:55:30;78.80;;;40.58;;
18822;SDS011;9540;51.550;7.980;2023-04-16T06:57:58;92.07;;;42.25;;
18822;SDS011;9540;51.550;7.980;2023-04-16T07:00:25;88.93;;;43.85;;
18822;SDS011;9540;51.550;7.980;2023-04-16T07:02:52;94.55;;;42.53;;
18822;SDS011;9540;51.550;7.980;2023-04-16T07:05:21;89.70;;;41.13;;
18822;SDS011;9540;51.550;7.980;2023-04-16T07:07:48;91.78;;;43.65;;
18822;SDS011;9540;51.550;7.980;2023-04-16T07:10:15;93.82;;;43.20;;
18822;SDS011;9540;51.550;7.980;2023-04-16T07:12:43;95.47;;;44.45;;
18822;SDS011;9540;51.550;7.980;2023-04-16T07:15:10;86.60;;;43.50;;
18822;SDS011;9540;51.550;7.980;2023-04-16T07:17:37;95.72;;;43.88;;
18822;SDS011;9540;51.550;7.980;2023-04-16T07:20:05;96.90;;;43.45;;
18822;SDS011;9540;51.550;7.980;2023-04-16T07:22:35;98.30;;;44.70;;
18822;SDS011;9540;51.550;7.980;2023-04-16T07:25:02;86.00;;;43.58;;
18822;SDS011;9540;51.550;7.980;2023-04-16T07:27:30;95.72;;;45.10;;
18822;SDS011;9540;51.550;7.980;2023-04-16T07:29:57;96.35;;;45.50;;
18822;SDS011;9540;51.550;7.980;2023-04-16T07:32:25;95.03;;;44.58;;
18822;SDS011;9540;51.550;7.980;2023-04-16T07:34:52;101.70;;;45.45;;
18822;SDS011;9540;51.550;7.980;2023-04-16T07:37:20;96.75;;;45.95;;
18822;SDS011;9540;51.550;7.980;2023-04-16T07:39:49;91.80;;;45.90;;
18822;SDS011;9540;51.550;7.980;2023-04-16T07:42:16;96.03;;;46.88;;
18822;SDS011;9540;51.550;7.980;2023-04-16T07:44:44;89.00;;;44.95;;
18822;SDS011;9540;51.550;7.980;2023-04-16T07:47:11;81.72;;;41.25;;
18822;SDS011;9540;51.550;7.980;2023-04-16T07:49:38;80.60;;;42.28;;
18822;SDS011;9540;51.550;7.980;2023-04-16T07:52:05;82.13;;;41.42;;
18822;SDS011;9540;51.550;7.980;2023-04-16T07:54:33;79.63;;;40.63;;
18822;SDS011;9540;51.550;7.980;2023-04-16T07:57:02;79.57;;;40.13;;
18822;SDS011;9540;51.550;7.980;2023-04-16T07:59:29;76.72;;;40.58;;
18822;SDS011;9540;51.550;7.980;2023-04-16T08:01:56;84.53;;;42.53;;
18822;SDS011;9540;51.550;7.980;2023-04-16T08:04:24;85.18;;;42.22;;
18822;SDS011;9540;51.550;7.980;2023-04-16T08:06:51;87.13;;;42.08;;
18822;SDS011;9540;51.550;7.980;2023-04-16T08:09:18;81.95;;;40.83;;
18822;SDS011;9540;51.550;7.980;2023-04-16T08:11:46;88.30;;;41.28;;
18822;SDS011;9540;51.550;7.980;2023-04-16T08:14:15;83.20;;;42.55;;
18822;SDS011;9540;51.550;7.980;2023-04-16T08:16:42;88.60;;;43.15;;
18822;SDS011;9540;51.550;7.980;2023-04-16T08:19:10;87.90;;;43.58;;
18822;SDS011;9540;51.550;7.980;2023-04-16T08:21:37;86.65;;;44.13;;
18822;SDS011;9540;51.550;7.980;2023-04-16T08:24:04;94.18;;;43.20;;
18822;SDS011;9540;51.550;7.980;2023-04-16T08:26:32;88.28;;;43.40;;
18822;SDS011;9540;51.550;7.980;2023-04-16T08:28:59;89.15;;;44.05;;
18822;SDS011;9540;51.550;7.980;2023-04-16T08:31:28;88.38;;;46.10;;
18822;SDS011;9540;51.550;7.980;2023-04-16T08:33:55;85.95;;;43.88;;
18822;SDS011;9540;51.550;7.980;2023-04-16T08:36:22;96.90;;;45.03;;
18822;SDS011;9540;51.550;7.980;2023-04-16T08:38:49;88.38;;;44.28;;
18822;SDS011;9540;51.550;7.980;2023-04-16T08:41:16;89.90;;;46.38;;
18822;SDS011;9540;51.550;7.980;2023-04-16T08:43:46;91.28;;;45.08;;
18822;SDS011;9540;51.550;7.980;2023-04-16T08:46:16;87.85;;;43.92;;
18822;SDS011;9540;51.550;7.980;2023-04-16T08:48:46;88.70;;;44.50;;
18822;SDS011;9540;51.550;7.980;2023-04-16T08:51:17;81.43;;;42.83;;
18822;SDS011;9540;51.550;7.980;2023-04-16T08:53:47;83.43;;;42.92;;
18822;SDS011;9540;51.550;7.980;2023-04-16T08:56:19;79.55;;;42.35;;
18822;SDS011;9540;51.550;7.980;2023-04-16T08:58:49;81.97;;;42.97;;
18822;SDS011;9540;51.550;7.980;2023-04-16T09:01:17;83.47;;;41.75;;
18822;SDS011;9540;51.550;7.980;2023-04-16T09:03:47;75.32;;;40.03;;
18822;SDS011;9540;51.550;7.980;2023-04-16T09:06:15;75.55;;;39.83;;
18822;SDS011;9540;51.550;7.980;2023-04-16T09:08:42;72.97;;;40.20;;
18822;SDS011;9540;51.550;7.980;2023-04-16T09:11:11;70.32;;;38.25;;
18822;SDS011;9540;51.550;7.980;2023-04-16T09:13:39;70.97;;;38.22;;
18822;SDS011;9540;51.550;7.980;2023-04-16T09:16:07;65.13;;;36.20;;
18822;SDS011;9540;51.550;7.980;2023-04-16T09:18:35;65.88;;;37.42;;
18822;SDS011;9540;51.550;7.980;2023-04-16T09:21:03;61.00;;;35.00;;
18822;SDS011;9540;51.550;7.980;2023-04-16T09:23:31;67.80;;;35.30;;
18822;SDS011;9540;51.550;7.980;2023-04-16T09:25:59;56.95;;;34.58;;
18822;SDS011;9540;51.550;7.980;2023-04-16T09:28:38;55.83;;;34.42;;
18822;SDS011;9540;51.550;7.980;2023-04-16T09:31:07;59.53;;;34.22;;
18822;SDS011;9540;51.550;7.980;2023-04-16T09:33:35;53.22;;;31.25;;
18822;SDS011;9540;51.550;7.980;2023-04-16T09:36:04;58.05;;;34.88;;
18822;SDS011;9540;51.550;7.980;2023-04-16T09:38:44;57.78;;;33.40;;
18822;SDS011;9540;51.550;7.980;2023-04-16T09:41:14;60.22;;;34.28;;
18822;SDS011;9540;51.550;7.980;2023-04-16T09:43:48;58.00;;;33.30;;
18822;SDS011;9540;51.550;7.980;2023-04-16T09:46:22;52.28;;;32.42;;
18822;SDS011;9540;51.550;7.980;2023-04-16T09:48:50;53.70;;;33.15;;
18822;SDS011;9540;51.550;7.980;2023-04-16T09:51:19;58.75;;;32.53;;
18822;SDS011;9540;51.550;7.980;2023-04-16T09:53:46;62.95;;;34.92;;
18822;SDS011;9540;51.550;7.980;2023-04-16T09:56:18;51.03;;;31.77;;
18822;SDS011;9540;51.550;7.980;2023-04-16T09:58:50;53.53;;;32.13;;
18822;SDS011;9540;51.550;7.980;2023-04-16T10:01:22;56.50;;;33.30;;
18822;SDS011;9540;51.550;7.980;2023-04-16T10:03:53;51.30;;;30.05;;
18822;SDS011;9540;51.550;7.980;2023-04-16T10:06:22;50.15;;;31.55;;
18822;SDS011;9540;51.550;7.980;2023-04-16T10:08:51;52.97;;;30.70;;
18822;SDS011;9540;51.550;7.980;2023-04-16T10:11:21;45.92;;;30.52;;
18822;SDS011;9540;51.550;7.980;2023-04-16T10:13:49;51.38;;;31.02;;
18822;SDS011;9540;51.550;7.980;2023-04-16T10:16:16;59.78;;;31.38;;
18822;SDS011;9540;51.550;7.980;2023-04-16T10:18:44;45.55;;;27.42;;
18822;SDS011;9540;51.550;7.980;2023-04-16T10:21:12;44.25;;;28.83;;
18822;SDS011;9540;51.550;7.980;2023-04-16T10:23:42;46.03;;;28.48;;
18822;SDS011;9540;51.550;7.980;2023-04-16T10:26:09;48.72;;;30.13;;
18822;SDS011;9540;51.550;7.980;2023-04-16T10:28:36;49.72;;;30.13;;
18822;SDS011;9540;51.550;7.980;2023-04-16T10:31:04;49.95;;;30.17;;
18822;SDS011;9540;51.550;7.980;2023-04-16T10:33:34;45.45;;;29.05;;
18822;SDS011;9540;51.550;7.980;2023-04-16T10:36:06;44.58;;;28.15;;
18822;SDS011;9540;51.550;7.980;2023-04-16T10:38:37;43.30;;;27.65;;
18822;SDS011;9540;51.550;7.980;2023-04-16T10:41:07;47.10;;;28.42;;
18822;SDS011;9540;51.550;7.980;2023-04-16T10:43:38;43.05;;;27.73;;
18822;SDS011;9540;51.550;7.980;2023-04-16T10:46:17;46.22;;;26.15;;
18822;SDS011;9540;51.550;7.980;2023-04-16T10:48:49;41.17;;;24.88;;
18822;SDS011;9540;51.550;7.980;2023-04-16T10:51:24;38.55;;;25.63;;
18822;SDS011;9540;51.550;7.980;2023-04-16T10:53:53;39.78;;;26.42;;
18822;SDS011;9540;51.550;7.980;2023-04-16T10:56:23;41.63;;;25.92;;
18822;SDS011;9540;51.550;7.980;2023-04-16T10:58:51;41.22;;;26.73;;
18822;SDS011;9540;51.550;7.980;2023-04-16T11:01:27;41.15;;;26.00;;
18822;SDS011;9540;51.550;7.980;2023-04-16T11:04:00;43.20;;;26.70;;
18822;SDS011;9540;51.550;7.980;2023-04-16T11:06:58;44.83;;;26.65;;
18822;SDS011;9540;51.550;7.980;2023-04-16T11:12:20;43.70;;;27.05;;
18822;SDS011;9540;51.550;7.980;2023-04-16T11:14:51;43.97;;;27.05;;
18822;SDS011;9540;51.550;7.980;2023-04-16T11:17:20;38.03;;;24.98;;
18822;SDS011;9540;51.550;7.980;2023-04-16T11:19:47;45.67;;;27.20;;
18822;SDS011;9540;51.550;7.980;2023-04-16T11:22:15;45.80;;;27.80;;
18822;SDS011;9540;51.550;7.980;2023-04-16T11:24:43;41.42;;;26.73;;
18822;SDS011;9540;51.550;7.980;2023-04-16T11:27:11;41.92;;;27.17;;
18822;SDS011;9540;51.550;7.980;2023-04-16T11:29:41;45.22;;;27.20;;
18822;SDS011;9540;51.550;7.980;2023-04-16T11:32:08;43.90;;;26.48;;
18822;SDS011;9540;51.550;7.980;2023-04-16T11:34:42;44.45;;;27.67;;
18822;SDS011;9540;51.550;7.980;2023-04-16T11:37:10;44.15;;;28.08;;
18822;SDS011;9540;51.550;7.980;2023-04-16T11:39:46;42.53;;;26.75;;
18822;SDS011;9540;51.550;7.980;2023-04-16T11:42:18;41.33;;;27.42;;
18822;SDS011;9540;51.550;7.980;2023-04-16T11:44:48;43.40;;;25.88;;
18822;SDS011;9540;51.550;7.980;2023-04-16T11:47:18;43.67;;;26.85;;
18822;SDS011;9540;51.550;7.980;2023-04-16T11:49:45;44.30;;;24.70;;
18822;SDS011;9540;51.550;7.980;2023-04-16T11:52:13;42.85;;;25.35;;
18822;SDS011;9540;51.550;7.980;2023-04-16T11:54:51;43.45;;;25.40;;
18822;SDS011;9540;51.550;7.980;2023-04-16T11:57:22;36.38;;;24.10;;
18822;SDS011;9540;51.550;7.980;2023-04-16T11:59:52;43.38;;;23.73;;
18822;SDS011;9540;51.550;7.980;2023-04-16T12:02:35;37.88;;;24.45;;
18822;SDS011;9540;51.550;7.980;2023-04-16T12:05:04;30.95;;;21.00;;
18822;SDS011;9540;51.550;7.980;2023-04-16T12:07:42;36.40;;;22.83;;
18822;SDS011;9540;51.550;7.980;2023-04-16T12:10:10;35.22;;;23.50;;
18822;SDS011;9540;51.550;7.980;2023-04-16T12:12:37;37.60;;;24.17;;
18822;SDS011;9540;51.550;7.980;2023-04-16T12:15:06;34.92;;;22.65;;
18822;SDS011;9540;51.550;7.980;2023-04-16T12:17:34;36.40;;;23.38;;
18822;SDS011;9540;51.550;7.980;2023-04-16T12:20:07;33.25;;;22.75;;
18822;SDS011;9540;51.550;7.980;2023-04-16T12:22:36;34.97;;;22.95;;
18822;SDS011;9540;51.550;7.980;2023-04-16T12:25:04;35.15;;;23.17;;
18822;SDS011;9540;51.550;7.980;2023-04-16T12:27:42;35.75;;;22.40;;
18822;SDS011;9540;51.550;7.980;2023-04-16T12:30:13;32.13;;;21.65;;
18822;SDS011;9540;51.550;7.980;2023-04-16T12:32:41;34.85;;;22.52;;
18822;SDS011;9540;51.550;7.980;2023-04-16T12:35:09;35.30;;;23.13;;
18822;SDS011;9540;51.550;7.980;2023-04-16T12:37:37;40.97;;;24.83;;
18822;SDS011;9540;51.550;7.980;2023-04-16T12:40:05;34.58;;;24.38;;
18822;SDS011;9540;51.550;7.980;2023-04-16T12:42:33;38.35;;;23.75;;
18822;SDS011;9540;51.550;7.980;2023-04-16T12:45:01;35.22;;;23.10;;
18822;SDS011;9540;51.550;7.980;2023-04-16T12:47:30;37.55;;;23.48;;
18822;SDS011;9540;51.550;7.980;2023-04-16T12:49:58;36.75;;;22.45;;
18822;SDS011;9540;51.550;7.980;2023-04-16T12:52:25;40.13;;;23.02;;
18822;SDS011;9540;51.550;7.980;2023-04-16T12:54:52;35.40;;;22.77;;
18822;SDS011;9540;51.550;7.980;2023-04-16T12:57:19;32.17;;;21.38;;
18822;SDS011;9540;51.550;7.980;2023-04-16T12:59:52;33.00;;;22.05;;
18822;SDS011;9540;51.550;7.980;2023-04-16T13:02:20;32.78;;;21.80;;
18822;SDS011;9540;51.550;7.980;2023-04-16T13:04:49;36.10;;;21.67;;
18822;SDS011;9540;51.550;7.980;2023-04-16T13:07:18;33.75;;;21.20;;
18822;SDS011;9540;51.550;7.980;2023-04-16T13:09:53;35.97;;;22.30;;
18822;SDS011;9540;51.550;7.980;2023-04-16T13:12:24;36.45;;;22.42;;
18822;SDS011;9540;51.550;7.980;2023-04-16T13:14:52;34.00;;;23.15;;
18822;SDS011;9540;51.550;7.980;2023-04-16T13:17:20;37.08;;;23.13;;
18822;SDS011;9540;51.550;7.980;2023-04-16T13:19:49;30.98;;;22.30;;
18822;SDS011;9540;51.550;7.980;2023-04-16T13:22:16;31.40;;;22.48;;
18822;SDS011;9540;51.550;7.980;2023-04-16T13:24:44;34.10;;;22.73;;
18822;SDS011;9540;51.550;7.980;2023-04-16T13:27:12;35.92;;;22.85;;
18822;SDS011;9540;51.550;7.980;2023-04-16T13:29:40;29.20;;;20.92;;
18822;SDS011;9540;51.550;7.980;2023-04-16T13:32:07;33.78;;;22.70;;
18822;SDS011;9540;51.550;7.980;2023-04-16T13:34:37;35.28;;;22.40;;
18822;SDS011;9540;51.550;7.980;2023-04-16T13:37:06;31.50;;;21.75;;
18822;SDS011;9540;51.550;7.980;2023-04-16T13:39:33;32.80;;;21.35;;
18822;SDS011;9540;51.550;7.980;2023-04-16T13:42:00;34.60;;;22.30;;
18822;SDS011;9540;51.550;7.980;2023-04-16T13:44:28;37.35;;;22.23;;
18822;SDS011;9540;51.550;7.980;2023-04-16T13:46:55;31.13;;;20.95;;
18822;SDS011;9540;51.550;7.980;2023-04-16T13:49:22;36.17;;;20.73;;
18822;SDS011;9540;51.550;7.980;2023-04-16T13:51:50;31.73;;;20.70;;
18822;SDS011;9540;51.550;7.980;2023-04-16T13:54:18;33.08;;;21.60;;
18822;SDS011;9540;51.550;7.980;2023-04-16T13:56:46;28.20;;;20.05;;
18822;SDS011;9540;51.550;7.980;2023-04-16T13:59:15;31.83;;;21.15;;
18822;SDS011;9540;51.550;7.980;2023-04-16T14:01:42;31.50;;;20.02;;
18822;SDS011;9540;51.550;7.980;2023-04-16T14:04:09;29.13;;;20.52;;
18822;SDS011;9540;51.550;7.980;2023-04-16T14:06:36;35.88;;;23.63;;
18822;SDS011;9540;51.550;7.980;2023-04-16T14:09:03;35.10;;;22.15;;
18822;SDS011;9540;51.550;7.980;2023-04-16T14:11:32;34.75;;;22.80;;
18822;SDS011;9540;51.550;7.980;2023-04-16T14:13:59;32.47;;;21.52;;
18822;SDS011;9540;51.550;7.980;2023-04-16T14:16:26;32.35;;;20.88;;
18822;SDS011;9540;51.550;7.980;2023-04-16T14:18:54;33.10;;;21.83;;
18822;SDS011;9540;51.550;7.980;2023-04-16T14:21:21;31.10;;;20.75;;
18822;SDS011;9540;51.550;7.980;2023-04-16T14:23:49;32.05;;;20.17;;
18822;SDS011;9540;51.550;7.980;2023-04-16T14:26:17;29.75;;;20.77;;
18822;SDS011;9540;51.550;7.980;2023-04-16T14:28:46;31.20;;;21.17;;
18822;SDS011;9540;51.550;7.980;2023-04-16T14:31:14;31.00;;;21.33;;
18822;SDS011;9540;51.550;7.980;2023-04-16T14:33:42;33.55;;;22.85;;
18822;SDS011;9540;51.550;7.980;2023-04-16T14:36:09;32.60;;;21.42;;
18822;SDS011;9540;51.550;7.980;2023-04-16T14:38:36;34.08;;;21.60;;